sensor_id;sensor_type;location;lat;lon;timestamp;temperature;humidity
80220;DHT22;70247;37.958;23.722;2023-07-13T00:00:30;28.00;46.10
80220;DHT22;70247;37.958;23.722;2023-07-13T00:02:57;27.90;45.70
80220;DHT22;70247;37.958;23.722;2023-07-13T00:05:23;28.00;45.40
80220;DHT22;70247;37.958;23.722;2023-07-13T00:07:49;28.00;45.80
80220;DHT22;70247;37.958;23.722;2023-07-13T00:10:15;27.90;46.80
80220;DHT22;70247;37.958;23.722;2023-07-13T00:12:41;28.00;46.90
80220;DHT22;70247;37.958;23.722;2023-07-13T00:15:17;28.00;45.90
80220;DHT22;70247;37.958;23.722;2023-07-13T00:17:54;28.00;46.30
80220;DHT22;70247;37.958;23.722;2023-07-13T00:20:24;28.00;47.00
80220;DHT22;70247;37.958;23.722;2023-07-13T00:22:51;28.00;47.50
80220;DHT22;70247;37.958;23.722;2023-07-13T00:25:19;28.00;46.40
80220;DHT22;70247;37.958;23.722;2023-07-13T00:27:46;28.00;44.60
80220;DHT22;70247;37.958;23.722;2023-07-13T00:30:14;28.00;43.20
80220;DHT22;70247;37.958;23.722;2023-07-13T00:32:39;28.10;44.00
80220;DHT22;70247;37.958;23.722;2023-07-13T00:35:05;28.10;44.90
80220;DHT22;70247;37.958;23.722;2023-07-13T00:37:31;28.10;44.60
80220;DHT22;70247;37.958;23.722;2023-07-13T00:39:56;28.10;44.80
80220;DHT22;70247;37.958;23.722;2023-07-13T00:42:22;28.10;44.60
80220;DHT22;70247;37.958;23.722;2023-07-13T00:47:32;28.10;44.60
80220;DHT22;70247;37.958;23.722;2023-07-13T00:49:58;28.00;45.90
80220;DHT22;70247;37.958;23.722;2023-07-13T00:52:24;28.10;46.10
80220;DHT22;70247;37.958;23.722;2023-07-13T00:54:50;28.10;46.10
80220;DHT22;70247;37.958;23.722;2023-07-13T00:57:16;28.10;46.40
80220;DHT22;70247;37.958;23.722;2023-07-13T00:59:43;28.00;45.90
80220;DHT22;70247;37.958;23.722;2023-07-13T01:02:11;28.00;45.70
80220;DHT22;70247;37.958;23.722;2023-07-13T01:04:36;28.00;45.50
80220;DHT22;70247;37.958;23.722;2023-07-13T01:07:04;27.90;46.80
80220;DHT22;70247;37.958;23.722;2023-07-13T01:09:30;27.90;44.80
80220;DHT22;70247;37.958;23.722;2023-07-13T01:11:55;27.90;44.30
80220;DHT22;70247;37.958;23.722;2023-07-13T01:14:21;27.90;45.10
80220;DHT22;70247;37.958;23.722;2023-07-13T01:16:47;27.90;44.40
80220;DHT22;70247;37.958;23.722;2023-07-13T01:19:32;27.90;45.80
80220;DHT22;70247;37.958;23.722;2023-07-13T01:22:02;27.90;45.90
80220;DHT22;70247;37.958;23.722;2023-07-13T01:24:28;27.80;45.50
80220;DHT22;70247;37.958;23.722;2023-07-13T01:26:54;27.70;45.50
80220;DHT22;70247;37.958;23.722;2023-07-13T01:29:20;27.70;46.00
80220;DHT22;70247;37.958;23.722;2023-07-13T01:31:46;27.70;46.40
80220;DHT22;70247;37.958;23.722;2023-07-13T01:34:11;27.60;46.60
80220;DHT22;70247;37.958;23.722;2023-07-13T01:36:37;27.60;46.30
80220;DHT22;70247;37.958;23.722;2023-07-13T01:39:03;27.50;45.70
80220;DHT22;70247;37.958;23.722;2023-07-13T01:41:29;27.60;45.90
80220;DHT22;70247;37.958;23.722;2023-07-13T01:43:54;27.60;44.70
80220;DHT22;70247;37.958;23.722;2023-07-13T01:46:20;27.60;44.20
80220;DHT22;70247;37.958;23.722;2023-07-13T01:48:45;27.60;43.20
80220;DHT22;70247;37.958;23.722;2023-07-13T01:51:11;27.60;41.70
80220;DHT22;70247;37.958;23.722;2023-07-13T01:53:37;27.60;43.00
80220;DHT22;70247;37.958;23.722;2023-07-13T01:56:03;27.70;42.50
80220;DHT22;70247;37.958;23.722;2023-07-13T01:58:28;27.70;42.80
80220;DHT22;70247;37.958;23.722;2023-07-13T02:00:54;27.70;44.30
80220;DHT22;70247;37.958;23.722;2023-07-13T02:03:19;27.70;43.50
80220;DHT22;70247;37.958;23.722;2023-07-13T02:05:45;27.60;41.60
80220;DHT22;70247;37.958;23.722;2023-07-13T02:08:11;27.60;41.00
80220;DHT22;70247;37.958;23.722;2023-07-13T02:10:36;27.60;42.40
80220;DHT22;70247;37.958;23.722;2023-07-13T02:13:04;27.60;41.60
80220;DHT22;70247;37.958;23.722;2023-07-13T02:15:29;27.60;43.40
80220;DHT22;70247;37.958;23.722;2023-07-13T02:17:55;27.60;43.90
80220;DHT22;70247;37.958;23.722;2023-07-13T02:20:22;27.60;42.60
80220;DHT22;70247;37.958;23.722;2023-07-13T02:22:47;27.60;42.40
80220;DHT22;70247;37.958;23.722;2023-07-13T02:25:13;27.50;43.00
80220;DHT22;70247;37.958;23.722;2023-07-13T02:27:39;27.60;43.40
80220;DHT22;70247;37.958;23.722;2023-07-13T02:30:05;27.60;43.50
80220;DHT22;70247;37.958;23.722;2023-07-13T02:32:31;27.60;44.80
80220;DHT22;70247;37.958;23.722;2023-07-13T02:34:56;27.60;45.50
80220;DHT22;70247;37.958;23.722;2023-07-13T02:37:22;27.60;44.70
80220;DHT22;70247;37.958;23.722;2023-07-13T02:39:47;27.60;43.80
80220;DHT22;70247;37.958;23.722;2023-07-13T02:42:13;27.60;44.40
80220;DHT22;70247;37.958;23.722;2023-07-13T02:44:39;27.50;44.70
80220;DHT22;70247;37.958;23.722;2023-07-13T02:47:04;27.50;44.60
80220;DHT22;70247;37.958;23.722;2023-07-13T02:49:30;27.50;43.30
80220;DHT22;70247;37.958;23.722;2023-07-13T02:51:55;27.50;42.70
80220;DHT22;70247;37.958;23.722;2023-07-13T02:54:21;27.50;42.90
80220;DHT22;70247;37.958;23.722;2023-07-13T02:56:46;27.50;42.30
80220;DHT22;70247;37.958;23.722;2023-07-13T02:59:12;27.50;42.90
80220;DHT22;70247;37.958;23.722;2023-07-13T03:01:38;27.50;41.90
80220;DHT22;70247;37.958;23.722;2023-07-13T03:04:03;27.50;43.30
80220;DHT22;70247;37.958;23.722;2023-07-13T03:06:30;27.50;43.70
80220;DHT22;70247;37.958;23.722;2023-07-13T03:08:56;27.50;43.80
80220;DHT22;70247;37.958;23.722;2023-07-13T03:11:22;27.50;44.90
80220;DHT22;70247;37.958;23.722;2023-07-13T03:13:47;27.50;44.70
80220;DHT22;70247;37.958;23.722;2023-07-13T03:16:14;27.50;44.70
80220;DHT22;70247;37.958;23.722;2023-07-13T03:18:41;27.40;44.70
80220;DHT22;70247;37.958;23.722;2023-07-13T03:21:07;27.40;43.70
80220;DHT22;70247;37.958;23.722;2023-07-13T03:23:32;27.50;43.30
80220;DHT22;70247;37.958;23.722;2023-07-13T03:26:02;27.50;44.30
80220;DHT22;70247;37.958;23.722;2023-07-13T03:28:28;27.50;44.50
80220;DHT22;70247;37.958;23.722;2023-07-13T03:31:00;27.40;44.90
80220;DHT22;70247;37.958;23.722;2023-07-13T03:33:26;27.50;45.20
80220;DHT22;70247;37.958;23.722;2023-07-13T03:35:52;27.40;44.20
80220;DHT22;70247;37.958;23.722;2023-07-13T03:38:17;27.40;42.50
80220;DHT22;70247;37.958;23.722;2023-07-13T03:40:43;27.50;43.30
80220;DHT22;70247;37.958;23.722;2023-07-13T03:43:08;27.40;43.70
80220;DHT22;70247;37.958;23.722;2023-07-13T03:45:34;27.40;44.60
80220;DHT22;70247;37.958;23.722;2023-07-13T03:47:59;27.40;43.20
80220;DHT22;70247;37.958;23.722;2023-07-13T03:50:25;27.40;43.60
80220;DHT22;70247;37.958;23.722;2023-07-13T03:52:50;27.40;44.10
80220;DHT22;70247;37.958;23.722;2023-07-13T03:55:16;27.40;43.60
80220;DHT22;70247;37.958;23.722;2023-07-13T03:57:41;27.40;43.20
80220;DHT22;70247;37.958;23.722;2023-07-13T04:00:07;27.40;43.10
80220;DHT22;70247;37.958;23.722;2023-07-13T04:02:34;27.40;44.30
80220;DHT22;70247;37.958;23.722;2023-07-13T04:04:59;27.40;43.20
80220;DHT22;70247;37.958;23.722;2023-07-13T04:07:25;27.40;43.50
80220;DHT22;70247;37.958;23.722;2023-07-13T04:09:50;27.40;43.20
80220;DHT22;70247;37.958;23.722;2023-07-13T04:12:16;27.40;44.20
80220;DHT22;70247;37.958;23.722;2023-07-13T04:14:41;27.50;44.10
80220;DHT22;70247;37.958;23.722;2023-07-13T04:17:07;27.50;44.40
80220;DHT22;70247;37.958;23.722;2023-07-13T04:19:32;27.50;45.40
80220;DHT22;70247;37.958;23.722;2023-07-13T04:21:58;27.60;45.50
80220;DHT22;70247;37.958;23.722;2023-07-13T04:24:24;27.60;44.60
80220;DHT22;70247;37.958;23.722;2023-07-13T04:26:49;27.60;45.50
80220;DHT22;70247;37.958;23.722;2023-07-13T04:29:15;27.60;45.00
80220;DHT22;70247;37.958;23.722;2023-07-13T04:31:40;27.60;44.70
80220;DHT22;70247;37.958;23.722;2023-07-13T04:34:06;27.70;45.40
80220;DHT22;70247;37.958;23.722;2023-07-13T04:36:32;27.70;45.70
80220;DHT22;70247;37.958;23.722;2023-07-13T04:38:58;27.80;45.10
80220;DHT22;70247;37.958;23.722;2023-07-13T04:41:23;27.80;44.40
80220;DHT22;70247;37.958;23.722;2023-07-13T04:43:49;27.80;44.30
80220;DHT22;70247;37.958;23.722;2023-07-13T04:46:15;27.80;44.40
80220;DHT22;70247;37.958;23.722;2023-07-13T04:48:42;27.90;44.80
80220;DHT22;70247;37.958;23.722;2023-07-13T04:51:08;27.90;44.90
80220;DHT22;70247;37.958;23.722;2023-07-13T04:53:34;27.90;44.10
80220;DHT22;70247;37.958;23.722;2023-07-13T04:55:59;28.00;44.10
80220;DHT22;70247;37.958;23.722;2023-07-13T04:58:25;28.00;43.90
80220;DHT22;70247;37.958;23.722;2023-07-13T05:00:51;28.00;44.20
80220;DHT22;70247;37.958;23.722;2023-07-13T05:03:17;28.10;43.80
80220;DHT22;70247;37.958;23.722;2023-07-13T05:05:42;28.10;43.30
80220;DHT22;70247;37.958;23.722;2023-07-13T05:08:08;28.10;43.30
80220;DHT22;70247;37.958;23.722;2023-07-13T05:10:35;28.20;44.40
80220;DHT22;70247;37.958;23.722;2023-07-13T05:13:00;28.20;44.80
80220;DHT22;70247;37.958;23.722;2023-07-13T05:15:26;28.30;45.30
80220;DHT22;70247;37.958;23.722;2023-07-13T05:17:52;28.30;44.70
80220;DHT22;70247;37.958;23.722;2023-07-13T05:20:17;28.40;40.10
80220;DHT22;70247;37.958;23.722;2023-07-13T05:22:43;28.40;38.10
80220;DHT22;70247;37.958;23.722;2023-07-13T05:25:09;28.50;38.50
80220;DHT22;70247;37.958;23.722;2023-07-13T05:27:35;28.50;38.50
80220;DHT22;70247;37.958;23.722;2023-07-13T05:30:01;28.60;38.50
80220;DHT22;70247;37.958;23.722;2023-07-13T05:32:27;28.60;38.40
80220;DHT22;70247;37.958;23.722;2023-07-13T05:34:52;28.70;37.70
80220;DHT22;70247;37.958;23.722;2023-07-13T05:37:18;28.80;36.80
80220;DHT22;70247;37.958;23.722;2023-07-13T05:39:43;28.80;35.20
80220;DHT22;70247;37.958;23.722;2023-07-13T05:42:09;28.80;34.90
80220;DHT22;70247;37.958;23.722;2023-07-13T05:44:35;28.80;35.50
80220;DHT22;70247;37.958;23.722;2023-07-13T05:47:00;28.90;35.40
80220;DHT22;70247;37.958;23.722;2023-07-13T05:49:26;28.90;35.00
80220;DHT22;70247;37.958;23.722;2023-07-13T05:51:51;29.00;34.40
80220;DHT22;70247;37.958;23.722;2023-07-13T05:54:17;29.00;34.60
80220;DHT22;70247;37.958;23.722;2023-07-13T05:56:43;29.00;32.70
80220;DHT22;70247;37.958;23.722;2023-07-13T05:59:08;29.00;33.90
80220;DHT22;70247;37.958;23.722;2023-07-13T06:01:34;29.00;35.80
80220;DHT22;70247;37.958;23.722;2023-07-13T06:03:59;29.10;33.70
80220;DHT22;70247;37.958;23.722;2023-07-13T06:06:25;29.20;34.60
80220;DHT22;70247;37.958;23.722;2023-07-13T06:08:50;29.10;34.70
80220;DHT22;70247;37.958;23.722;2023-07-13T06:11:18;29.10;33.50
80220;DHT22;70247;37.958;23.722;2023-07-13T06:13:44;29.20;34.20
80220;DHT22;70247;37.958;23.722;2023-07-13T06:16:09;29.20;33.50
80220;DHT22;70247;37.958;23.722;2023-07-13T06:18:36;29.30;34.20
80220;DHT22;70247;37.958;23.722;2023-07-13T06:21:06;29.40;34.20
80220;DHT22;70247;37.958;23.722;2023-07-13T06:23:31;29.40;34.80
80220;DHT22;70247;37.958;23.722;2023-07-13T06:25:57;29.40;34.60
80220;DHT22;70247;37.958;23.722;2023-07-13T06:28:23;29.50;33.80
80220;DHT22;70247;37.958;23.722;2023-07-13T06:30:48;29.50;34.00
80220;DHT22;70247;37.958;23.722;2023-07-13T06:33:14;29.60;34.10
80220;DHT22;70247;37.958;23.722;2023-07-13T06:35:39;29.60;33.20
80220;DHT22;70247;37.958;23.722;2023-07-13T06:38:05;29.70;36.30
80220;DHT22;70247;37.958;23.722;2023-07-13T06:40:31;29.70;35.10
80220;DHT22;70247;37.958;23.722;2023-07-13T06:42:56;29.60;34.20
80220;DHT22;70247;37.958;23.722;2023-07-13T06:45:22;29.40;33.70
80220;DHT22;70247;37.958;23.722;2023-07-13T06:47:48;29.50;34.60
80220;DHT22;70247;37.958;23.722;2023-07-13T06:50:14;29.40;34.20
80220;DHT22;70247;37.958;23.722;2023-07-13T06:52:40;29.40;34.80
80220;DHT22;70247;37.958;23.722;2023-07-13T06:55:06;29.40;33.00
80220;DHT22;70247;37.958;23.722;2023-07-13T06:57:31;29.40;33.90
80220;DHT22;70247;37.958;23.722;2023-07-13T06:59:57;29.40;33.40
80220;DHT22;70247;37.958;23.722;2023-07-13T07:02:23;29.70;37.60
80220;DHT22;70247;37.958;23.722;2023-07-13T07:04:48;29.60;31.90
80220;DHT22;70247;37.958;23.722;2023-07-13T07:07:15;29.70;33.70
80220;DHT22;70247;37.958;23.722;2023-07-13T07:09:40;29.90;34.60
80220;DHT22;70247;37.958;23.722;2023-07-13T07:12:06;30.10;36.10
80220;DHT22;70247;37.958;23.722;2023-07-13T07:14:32;30.20;33.90
80220;DHT22;70247;37.958;23.722;2023-07-13T07:16:59;30.30;34.80
80220;DHT22;70247;37.958;23.722;2023-07-13T07:19:25;30.30;36.20
80220;DHT22;70247;37.958;23.722;2023-07-13T07:21:50;30.40;31.40
80220;DHT22;70247;37.958;23.722;2023-07-13T07:24:16;30.50;34.50
80220;DHT22;70247;37.958;23.722;2023-07-13T07:26:41;30.60;32.40
80220;DHT22;70247;37.958;23.722;2023-07-13T07:29:07;30.60;34.10
80220;DHT22;70247;37.958;23.722;2023-07-13T07:31:33;30.70;35.10
80220;DHT22;70247;37.958;23.722;2023-07-13T07:33:58;30.80;32.70
80220;DHT22;70247;37.958;23.722;2023-07-13T07:36:24;31.00;33.10
80220;DHT22;70247;37.958;23.722;2023-07-13T07:38:49;31.00;33.40
80220;DHT22;70247;37.958;23.722;2023-07-13T07:41:15;31.10;32.80
80220;DHT22;70247;37.958;23.722;2023-07-13T07:43:41;31.00;32.60
80220;DHT22;70247;37.958;23.722;2023-07-13T07:46:06;31.10;34.40
80220;DHT22;70247;37.958;23.722;2023-07-13T07:48:32;31.10;33.50
80220;DHT22;70247;37.958;23.722;2023-07-13T07:50:58;31.00;31.60
80220;DHT22;70247;37.958;23.722;2023-07-13T07:53:23;31.10;33.30
80220;DHT22;70247;37.958;23.722;2023-07-13T07:55:49;31.20;34.60
80220;DHT22;70247;37.958;23.722;2023-07-13T07:58:15;31.30;34.60
80220;DHT22;70247;37.958;23.722;2023-07-13T08:00:40;31.20;33.30
80220;DHT22;70247;37.958;23.722;2023-07-13T08:03:06;31.30;34.60
80220;DHT22;70247;37.958;23.722;2023-07-13T08:05:32;31.30;34.30
80220;DHT22;70247;37.958;23.722;2023-07-13T08:08:00;31.40;33.70
80220;DHT22;70247;37.958;23.722;2023-07-13T08:10:25;31.50;36.00
80220;DHT22;70247;37.958;23.722;2023-07-13T08:12:51;31.50;31.70
80220;DHT22;70247;37.958;23.722;2023-07-13T08:15:17;31.70;35.30
80220;DHT22;70247;37.958;23.722;2023-07-13T08:17:42;31.70;34.00
80220;DHT22;70247;37.958;23.722;2023-07-13T08:20:08;31.80;33.80
80220;DHT22;70247;37.958;23.722;2023-07-13T08:22:37;31.90;33.00
80220;DHT22;70247;37.958;23.722;2023-07-13T08:25:03;32.00;34.10
80220;DHT22;70247;37.958;23.722;2023-07-13T08:27:28;32.00;33.70
80220;DHT22;70247;37.958;23.722;2023-07-13T08:29:54;32.10;32.80
80220;DHT22;70247;37.958;23.722;2023-07-13T08:32:20;32.30;33.80
80220;DHT22;70247;37.958;23.722;2023-07-13T08:34:46;32.40;31.30
80220;DHT22;70247;37.958;23.722;2023-07-13T08:37:11;32.60;35.80
80220;DHT22;70247;37.958;23.722;2023-07-13T08:39:37;32.80;35.60
80220;DHT22;70247;37.958;23.722;2023-07-13T08:42:05;32.80;35.80
80220;DHT22;70247;37.958;23.722;2023-07-13T08:47:03;32.90;33.20
80220;DHT22;70247;37.958;23.722;2023-07-13T08:49:28;33.00;32.10
80220;DHT22;70247;37.958;23.722;2023-07-13T08:52:00;33.00;32.30
80220;DHT22;70247;37.958;23.722;2023-07-13T08:57:27;33.90;30.80
80220;DHT22;70247;37.958;23.722;2023-07-13T08:59:55;35.10;32.60
80220;DHT22;70247;37.958;23.722;2023-07-13T09:02:25;36.10;29.30
80220;DHT22;70247;37.958;23.722;2023-07-13T09:10:15;37.90;29.90
80220;DHT22;70247;37.958;23.722;2023-07-13T09:15:31;40.10;26.90
80220;DHT22;70247;37.958;23.722;2023-07-13T09:18:04;41.20;25.10
80220;DHT22;70247;37.958;23.722;2023-07-13T09:20:34;42.00;25.40
80220;DHT22;70247;37.958;23.722;2023-07-13T09:23:01;42.60;25.00
80220;DHT22;70247;37.958;23.722;2023-07-13T09:27:55;43.10;24.50
80220;DHT22;70247;37.958;23.722;2023-07-13T09:32:51;43.90;23.30
80220;DHT22;70247;37.958;23.722;2023-07-13T09:35:21;44.00;23.30
80220;DHT22;70247;37.958;23.722;2023-07-13T09:37:47;43.90;23.70
80220;DHT22;70247;37.958;23.722;2023-07-13T09:40:17;44.80;22.90
80220;DHT22;70247;37.958;23.722;2023-07-13T09:42:43;45.30;22.40
80220;DHT22;70247;37.958;23.722;2023-07-13T09:45:09;45.00;22.70
80220;DHT22;70247;37.958;23.722;2023-07-13T09:47:38;45.20;22.50
80220;DHT22;70247;37.958;23.722;2023-07-13T09:50:06;44.70;23.20
80220;DHT22;70247;37.958;23.722;2023-07-13T09:52:48;44.80;24.00
80220;DHT22;70247;37.958;23.722;2023-07-13T09:55:24;45.20;23.20
80220;DHT22;70247;37.958;23.722;2023-07-13T09:57:50;45.00;23.20
80220;DHT22;70247;37.958;23.722;2023-07-13T10:00:28;45.70;22.90
80220;DHT22;70247;37.958;23.722;2023-07-13T10:03:01;46.10;22.00
80220;DHT22;70247;37.958;23.722;2023-07-13T10:05:36;45.90;22.50
80220;DHT22;70247;37.958;23.722;2023-07-13T10:08:02;46.10;22.50
80220;DHT22;70247;37.958;23.722;2023-07-13T10:10:28;46.00;22.60
80220;DHT22;70247;37.958;23.722;2023-07-13T10:12:53;46.30;22.40
80220;DHT22;70247;37.958;23.722;2023-07-13T10:15:20;46.20;22.20
80220;DHT22;70247;37.958;23.722;2023-07-13T10:17:46;46.00;22.20
80220;DHT22;70247;37.958;23.722;2023-07-13T10:20:12;46.00;21.70
80220;DHT22;70247;37.958;23.722;2023-07-13T10:25:21;45.70;22.10
80220;DHT22;70247;37.958;23.722;2023-07-13T10:27:49;45.90;21.90
80220;DHT22;70247;37.958;23.722;2023-07-13T10:30:17;45.20;21.70
80220;DHT22;70247;37.958;23.722;2023-07-13T10:32:45;44.90;22.70
80220;DHT22;70247;37.958;23.722;2023-07-13T10:35:12;44.80;21.70
80220;DHT22;70247;37.958;23.722;2023-07-13T10:37:41;44.30;22.90
80220;DHT22;70247;37.958;23.722;2023-07-13T10:40:11;44.10;22.20
80220;DHT22;70247;37.958;23.722;2023-07-13T10:42:39;43.50;22.10
80220;DHT22;70247;37.958;23.722;2023-07-13T10:45:20;42.90;23.30
80220;DHT22;70247;37.958;23.722;2023-07-13T10:47:46;42.50;23.00
80220;DHT22;70247;37.958;23.722;2023-07-13T10:50:19;42.10;23.40
80220;DHT22;70247;37.958;23.722;2023-07-13T10:52:50;41.50;24.90
80220;DHT22;70247;37.958;23.722;2023-07-13T10:58:02;39.90;24.60
80220;DHT22;70247;37.958;23.722;2023-07-13T11:00:31;39.10;24.00
80220;DHT22;70247;37.958;23.722;2023-07-13T11:02:58;38.70;24.90
80220;DHT22;70247;37.958;23.722;2023-07-13T11:05:27;38.20;26.30
80220;DHT22;70247;37.958;23.722;2023-07-13T11:08:55;37.80;26.00
80220;DHT22;70247;37.958;23.722;2023-07-13T11:10:53;37.60;25.50
80220;DHT22;70247;37.958;23.722;2023-07-13T11:13:36;37.50;26.30
80220;DHT22;70247;37.958;23.722;2023-07-13T11:16:05;37.40;26.50
80220;DHT22;70247;37.958;23.722;2023-07-13T11:18:37;37.20;26.30
80220;DHT22;70247;37.958;23.722;2023-07-13T11:21:14;37.10;27.80
80220;DHT22;70247;37.958;23.722;2023-07-13T11:23:41;36.90;26.70
80220;DHT22;70247;37.958;23.722;2023-07-13T11:28:52;36.50;27.50
80220;DHT22;70247;37.958;23.722;2023-07-13T11:31:18;36.50;27.80
80220;DHT22;70247;37.958;23.722;2023-07-13T11:33:51;36.50;26.60
80220;DHT22;70247;37.958;23.722;2023-07-13T11:36:19;36.50;28.20
80220;DHT22;70247;37.958;23.722;2023-07-13T11:41:24;36.50;27.30
80220;DHT22;70247;37.958;23.722;2023-07-13T11:43:55;36.40;26.50
80220;DHT22;70247;37.958;23.722;2023-07-13T11:46:24;36.20;28.00
80220;DHT22;70247;37.958;23.722;2023-07-13T11:48:51;36.20;26.40
80220;DHT22;70247;37.958;23.722;2023-07-13T11:51:27;36.10;28.60
80220;DHT22;70247;37.958;23.722;2023-07-13T11:53:54;36.20;28.40
80220;DHT22;70247;37.958;23.722;2023-07-13T11:56:20;36.20;27.80
80220;DHT22;70247;37.958;23.722;2023-07-13T11:58:50;36.40;27.60
80220;DHT22;70247;37.958;23.722;2023-07-13T12:01:23;36.50;27.70
80220;DHT22;70247;37.958;23.722;2023-07-13T12:03:50;36.60;27.40
80220;DHT22;70247;37.958;23.722;2023-07-13T12:06:21;36.80;28.90
80220;DHT22;70247;37.958;23.722;2023-07-13T12:08:49;36.80;30.20
80220;DHT22;70247;37.958;23.722;2023-07-13T12:11:15;36.70;31.70
80220;DHT22;70247;37.958;23.722;2023-07-13T12:13:43;36.60;31.20
80220;DHT22;70247;37.958;23.722;2023-07-13T12:16:16;36.50;31.40
80220;DHT22;70247;37.958;23.722;2023-07-13T12:18:43;36.40;31.70
80220;DHT22;70247;37.958;23.722;2023-07-13T12:21:12;36.40;32.80
80220;DHT22;70247;37.958;23.722;2023-07-13T12:23:39;36.50;30.30
80220;DHT22;70247;37.958;23.722;2023-07-13T12:26:06;36.50;29.60
80220;DHT22;70247;37.958;23.722;2023-07-13T12:28:35;36.60;30.00
80220;DHT22;70247;37.958;23.722;2023-07-13T12:31:03;36.60;29.90
80220;DHT22;70247;37.958;23.722;2023-07-13T12:33:29;36.40;29.50
80220;DHT22;70247;37.958;23.722;2023-07-13T12:35:55;36.40;29.90
80220;DHT22;70247;37.958;23.722;2023-07-13T12:38:21;36.40;30.00
80220;DHT22;70247;37.958;23.722;2023-07-13T12:40:49;36.40;32.00
80220;DHT22;70247;37.958;23.722;2023-07-13T12:43:15;36.40;29.60
80220;DHT22;70247;37.958;23.722;2023-07-13T12:48:25;36.20;29.40
80220;DHT22;70247;37.958;23.722;2023-07-13T12:50:51;36.20;28.30
80220;DHT22;70247;37.958;23.722;2023-07-13T12:53:20;36.20;27.30
80220;DHT22;70247;37.958;23.722;2023-07-13T12:55:50;36.20;28.40
80220;DHT22;70247;37.958;23.722;2023-07-13T12:58:20;36.10;26.30
80220;DHT22;70247;37.958;23.722;2023-07-13T13:00:49;36.00;27.20
80220;DHT22;70247;37.958;23.722;2023-07-13T13:03:35;36.10;27.90
80220;DHT22;70247;37.958;23.722;2023-07-13T13:06:06;36.00;27.20
80220;DHT22;70247;37.958;23.722;2023-07-13T13:08:32;36.00;27.70
80220;DHT22;70247;37.958;23.722;2023-07-13T13:10:58;35.90;27.80
80220;DHT22;70247;37.958;23.722;2023-07-13T13:13:24;35.90;28.10
80220;DHT22;70247;37.958;23.722;2023-07-13T13:15:50;36.00;29.60
80220;DHT22;70247;37.958;23.722;2023-07-13T13:18:19;35.90;26.70
80220;DHT22;70247;37.958;23.722;2023-07-13T13:20:45;35.80;27.20
80220;DHT22;70247;37.958;23.722;2023-07-13T13:23:18;35.70;28.00
80220;DHT22;70247;37.958;23.722;2023-07-13T13:25:49;35.70;27.20
80220;DHT22;70247;37.958;23.722;2023-07-13T13:28:16;35.60;27.50
80220;DHT22;70247;37.958;23.722;2023-07-13T13:30:42;35.60;28.20
80220;DHT22;70247;37.958;23.722;2023-07-13T13:33:12;35.70;27.80
80220;DHT22;70247;37.958;23.722;2023-07-13T13:35:37;35.60;27.90
80220;DHT22;70247;37.958;23.722;2023-07-13T13:38:08;35.40;27.30
80220;DHT22;70247;37.958;23.722;2023-07-13T13:40:34;35.40;28.00
80220;DHT22;70247;37.958;23.722;2023-07-13T13:43:00;35.40;27.70
80220;DHT22;70247;37.958;23.722;2023-07-13T13:45:26;35.40;28.20
80220;DHT22;70247;37.958;23.722;2023-07-13T13:47:51;35.40;28.50
80220;DHT22;70247;37.958;23.722;2023-07-13T13:50:21;35.30;28.60
80220;DHT22;70247;37.958;23.722;2023-07-13T13:52:49;35.30;28.80
80220;DHT22;70247;37.958;23.722;2023-07-13T13:55:16;35.30;28.50
80220;DHT22;70247;37.958;23.722;2023-07-13T13:57:43;35.20;28.70
80220;DHT22;70247;37.958;23.722;2023-07-13T14:00:09;35.30;28.90
80220;DHT22;70247;37.958;23.722;2023-07-13T14:02:37;35.20;29.80
80220;DHT22;70247;37.958;23.722;2023-07-13T14:05:03;35.10;29.30
80220;DHT22;70247;37.958;23.722;2023-07-13T14:07:28;35.00;28.60
80220;DHT22;70247;37.958;23.722;2023-07-13T14:09:56;35.00;30.00
80220;DHT22;70247;37.958;23.722;2023-07-13T14:12:22;35.00;29.60
80220;DHT22;70247;37.958;23.722;2023-07-13T14:14:50;35.10;29.80
80220;DHT22;70247;37.958;23.722;2023-07-13T14:17:25;35.00;30.80
80220;DHT22;70247;37.958;23.722;2023-07-13T14:19:52;35.00;30.00
80220;DHT22;70247;37.958;23.722;2023-07-13T14:22:25;35.10;29.80
80220;DHT22;70247;37.958;23.722;2023-07-13T14:24:52;35.10;30.00
80220;DHT22;70247;37.958;23.722;2023-07-13T14:27:18;35.20;30.30
80220;DHT22;70247;37.958;23.722;2023-07-13T14:29:44;35.10;29.90
80220;DHT22;70247;37.958;23.722;2023-07-13T14:32:10;35.10;30.10
80220;DHT22;70247;37.958;23.722;2023-07-13T14:34:36;35.00;31.10
80220;DHT22;70247;37.958;23.722;2023-07-13T14:37:01;35.00;30.00
80220;DHT22;70247;37.958;23.722;2023-07-13T14:39:29;35.00;30.40
80220;DHT22;70247;37.958;23.722;2023-07-13T14:41:55;34.90;30.40
80220;DHT22;70247;37.958;23.722;2023-07-13T14:44:23;34.80;30.50
80220;DHT22;70247;37.958;23.722;2023-07-13T14:46:49;34.80;30.90
80220;DHT22;70247;37.958;23.722;2023-07-13T14:51:41;34.60;31.10
80220;DHT22;70247;37.958;23.722;2023-07-13T14:54:08;34.60;32.60
80220;DHT22;70247;37.958;23.722;2023-07-13T14:56:34;34.50;31.30
80220;DHT22;70247;37.958;23.722;2023-07-13T14:58:59;34.50;31.70
80220;DHT22;70247;37.958;23.722;2023-07-13T15:01:25;34.60;33.00
80220;DHT22;70247;37.958;23.722;2023-07-13T15:03:51;34.70;31.40
80220;DHT22;70247;37.958;23.722;2023-07-13T15:06:17;34.60;30.40
80220;DHT22;70247;37.958;23.722;2023-07-13T15:08:44;34.50;31.70
80220;DHT22;70247;37.958;23.722;2023-07-13T15:11:10;34.50;31.90
80220;DHT22;70247;37.958;23.722;2023-07-13T15:13:37;34.50;30.90
80220;DHT22;70247;37.958;23.722;2023-07-13T15:16:03;34.60;31.20
80220;DHT22;70247;37.958;23.722;2023-07-13T15:18:30;34.50;32.90
80220;DHT22;70247;37.958;23.722;2023-07-13T15:20:55;34.50;31.30
80220;DHT22;70247;37.958;23.722;2023-07-13T15:23:23;34.50;32.50
80220;DHT22;70247;37.958;23.722;2023-07-13T15:25:48;34.50;32.10
80220;DHT22;70247;37.958;23.722;2023-07-13T15:28:15;34.60;31.60
80220;DHT22;70247;37.958;23.722;2023-07-13T15:30:41;34.60;32.30
80220;DHT22;70247;37.958;23.722;2023-07-13T15:33:11;34.50;32.20
80220;DHT22;70247;37.958;23.722;2023-07-13T15:35:37;34.50;31.80
80220;DHT22;70247;37.958;23.722;2023-07-13T15:38:17;34.50;32.50
80220;DHT22;70247;37.958;23.722;2023-07-13T15:40:42;34.40;33.60
80220;DHT22;70247;37.958;23.722;2023-07-13T15:43:11;34.30;31.40
80220;DHT22;70247;37.958;23.722;2023-07-13T15:45:38;34.30;30.50
80220;DHT22;70247;37.958;23.722;2023-07-13T15:48:14;34.30;30.40
80220;DHT22;70247;37.958;23.722;2023-07-13T15:50:42;34.30;32.10